sensor_id;sensor_type;location;lat;lon;timestamp;temperature;humidity
69031;DHT22;56083;48.774;8.942;2023-08-08T00:02:01;11.20;99.90
69031;DHT22;56083;48.774;8.942;2023-08-08T00:04:26;11.30;99.90
69031;DHT22;56083;48.774;8.942;2023-08-08T00:06:52;11.30;99.90
69031;DHT22;56083;48.774;8.942;2023-08-08T00:09:18;11.40;99.90
69031;DHT22;56083;48.774;8.942;2023-08-08T00:11:43;11.40;99.90
69031;DHT22;56083;48.774;8.942;2023-08-08T00:14:09;11.50;99.90
69031;DHT22;56083;48.774;8.942;2023-08-08T00:16:35;11.60;99.90
69031;DHT22;56083;48.774;8.942;2023-08-08T00:19:01;11.60;99.90
69031;DHT22;56083;48.774;8.942;2023-08-08T00:21:26;11.70;99.90
69031;DHT22;56083;48.774;8.942;2023-08-08T00:23:52;11.70;99.90
69031;DHT22;56083;48.774;8.942;2023-08-08T00:26:18;11.70;99.90
69031;DHT22;56083;48.774;8.942;2023-08-08T00:28:43;11.80;99.90
69031;DHT22;56083;48.774;8.942;2023-08-08T00:31:10;11.80;99.90
69031;DHT22;56083;48.774;8.942;2023-08-08T00:33:36;11.80;99.90
69031;DHT22;56083;48.774;8.942;2023-08-08T00:36:01;11.80;99.90
69031;DHT22;56083;48.774;8.942;2023-08-08T00:38:27;11.80;99.90
69031;DHT22;56083;48.774;8.942;2023-08-08T00:40:53;11.80;99.90
69031;DHT22;56083;48.774;8.942;2023-08-08T00:43:18;11.80;99.90
69031;DHT22;56083;48.774;8.942;2023-08-08T00:45:44;11.90;99.90
69031;DHT22;56083;48.774;8.942;2023-08-08T00:48:11;11.90;99.90
69031;DHT22;56083;48.774;8.942;2023-08-08T00:50:37;11.90;99.90
69031;DHT22;56083;48.774;8.942;2023-08-08T00:53:04;11.90;99.90
69031;DHT22;56083;48.774;8.942;2023-08-08T00:55:30;11.90;99.90
69031;DHT22;56083;48.774;8.942;2023-08-08T00:57:56;11.80;99.90
69031;DHT22;56083;48.774;8.942;2023-08-08T01:00:22;11.80;99.90
69031;DHT22;56083;48.774;8.942;2023-08-08T01:02:48;11.90;99.90
69031;DHT22;56083;48.774;8.942;2023-08-08T01:05:14;11.90;99.90
69031;DHT22;56083;48.774;8.942;2023-08-08T01:08:04;11.90;99.90
69031;DHT22;56083;48.774;8.942;2023-08-08T01:10:34;11.90;99.90
69031;DHT22;56083;48.774;8.942;2023-08-08T01:13:05;12.00;99.90
69031;DHT22;56083;48.774;8.942;2023-08-08T01:15:33;12.10;99.90
69031;DHT22;56083;48.774;8.942;2023-08-08T01:18:05;12.20;99.90
69031;DHT22;56083;48.774;8.942;2023-08-08T01:20:32;12.30;99.90
69031;DHT22;56083;48.774;8.942;2023-08-08T01:23:28;12.30;99.90
69031;DHT22;56083;48.774;8.942;2023-08-08T01:25:57;12.40;99.90
69031;DHT22;56083;48.774;8.942;2023-08-08T01:28:23;12.30;99.90
69031;DHT22;56083;48.774;8.942;2023-08-08T01:30:50;12.30;99.90
69031;DHT22;56083;48.774;8.942;2023-08-08T01:33:16;12.30;99.90
69031;DHT22;56083;48.774;8.942;2023-08-08T01:35:46;12.30;99.90
69031;DHT22;56083;48.774;8.942;2023-08-08T01:38:36;12.30;99.90
69031;DHT22;56083;48.774;8.942;2023-08-08T01:41:05;12.30;99.90
69031;DHT22;56083;48.774;8.942;2023-08-08T01:43:32;12.30;99.90
69031;DHT22;56083;48.774;8.942;2023-08-08T01:45:59;12.30;99.90
69031;DHT22;56083;48.774;8.942;2023-08-08T01:48:25;12.30;99.90
69031;DHT22;56083;48.774;8.942;2023-08-08T01:50:52;12.20;99.90
69031;DHT22;56083;48.774;8.942;2023-08-08T01:53:18;12.20;99.90
69031;DHT22;56083;48.774;8.942;2023-08-08T01:55:44;12.20;99.90
69031;DHT22;56083;48.774;8.942;2023-08-08T01:58:09;12.20;99.90
69031;DHT22;56083;48.774;8.942;2023-08-08T02:00:35;12.10;99.90
69031;DHT22;56083;48.774;8.942;2023-08-08T02:03:02;12.00;99.90
69031;DHT22;56083;48.774;8.942;2023-08-08T02:05:28;12.00;99.90
69031;DHT22;56083;48.774;8.942;2023-08-08T02:07:54;11.90;99.90
69031;DHT22;56083;48.774;8.942;2023-08-08T02:10:19;11.80;99.90
69031;DHT22;56083;48.774;8.942;2023-08-08T02:12:45;11.70;99.90
69031;DHT22;56083;48.774;8.942;2023-08-08T02:15:11;11.60;99.90
69031;DHT22;56083;48.774;8.942;2023-08-08T02:17:38;11.60;99.90
69031;DHT22;56083;48.774;8.942;2023-08-08T02:20:05;11.40;99.90
69031;DHT22;56083;48.774;8.942;2023-08-08T02:22:31;11.40;99.90
69031;DHT22;56083;48.774;8.942;2023-08-08T02:24:56;11.30;99.90
69031;DHT22;56083;48.774;8.942;2023-08-08T02:27:22;11.20;99.90
69031;DHT22;56083;48.774;8.942;2023-08-08T02:29:48;11.10;99.90
69031;DHT22;56083;48.774;8.942;2023-08-08T02:32:14;11.00;99.90
69031;DHT22;56083;48.774;8.942;2023-08-08T02:34:40;10.90;99.90
69031;DHT22;56083;48.774;8.942;2023-08-08T02:37:05;10.90;99.90
69031;DHT22;56083;48.774;8.942;2023-08-08T02:39:31;10.90;99.90
69031;DHT22;56083;48.774;8.942;2023-08-08T02:41:57;10.80;99.90
69031;DHT22;56083;48.774;8.942;2023-08-08T02:44:22;10.80;99.90
69031;DHT22;56083;48.774;8.942;2023-08-08T02:46:48;10.70;99.90
69031;DHT22;56083;48.774;8.942;2023-08-08T02:49:14;10.60;99.90
69031;DHT22;56083;48.774;8.942;2023-08-08T02:51:40;10.60;99.90
69031;DHT22;56083;48.774;8.942;2023-08-08T02:54:06;10.50;99.90
69031;DHT22;56083;48.774;8.942;2023-08-08T02:56:31;10.60;99.90
69031;DHT22;56083;48.774;8.942;2023-08-08T02:58:57;10.70;99.90
69031;DHT22;56083;48.774;8.942;2023-08-08T03:01:23;10.80;99.90
69031;DHT22;56083;48.774;8.942;2023-08-08T03:03:49;10.90;99.90
69031;DHT22;56083;48.774;8.942;2023-08-08T03:06:15;11.00;99.90
69031;DHT22;56083;48.774;8.942;2023-08-08T03:08:41;11.00;99.90
69031;DHT22;56083;48.774;8.942;2023-08-08T03:11:06;11.10;99.90
69031;DHT22;56083;48.774;8.942;2023-08-08T03:13:32;11.10;99.90
69031;DHT22;56083;48.774;8.942;2023-08-08T03:15:58;11.20;99.90
69031;DHT22;56083;48.774;8.942;2023-08-08T03:18:23;11.30;99.90
69031;DHT22;56083;48.774;8.942;2023-08-08T03:20:51;11.40;99.90
69031;DHT22;56083;48.774;8.942;2023-08-08T03:23:18;11.50;99.90
69031;DHT22;56083;48.774;8.942;2023-08-08T03:25:43;11.70;99.90
69031;DHT22;56083;48.774;8.942;2023-08-08T03:28:09;11.80;99.90
69031;DHT22;56083;48.774;8.942;2023-08-08T03:30:37;11.90;99.90
69031;DHT22;56083;48.774;8.942;2023-08-08T03:33:03;12.00;99.90
69031;DHT22;56083;48.774;8.942;2023-08-08T03:35:29;12.10;99.90
69031;DHT22;56083;48.774;8.942;2023-08-08T03:37:54;12.20;99.90
69031;DHT22;56083;48.774;8.942;2023-08-08T03:40:20;12.30;99.90
69031;DHT22;56083;48.774;8.942;2023-08-08T03:42:46;12.30;99.90
69031;DHT22;56083;48.774;8.942;2023-08-08T03:45:11;12.40;99.90
69031;DHT22;56083;48.774;8.942;2023-08-08T03:47:37;12.40;99.90
69031;DHT22;56083;48.774;8.942;2023-08-08T03:50:05;12.50;99.90
69031;DHT22;56083;48.774;8.942;2023-08-08T03:52:30;12.50;99.90
69031;DHT22;56083;48.774;8.942;2023-08-08T03:54:56;12.50;99.90
69031;DHT22;56083;48.774;8.942;2023-08-08T03:57:22;12.50;99.90
69031;DHT22;56083;48.774;8.942;2023-08-08T03:59:47;12.50;99.90
69031;DHT22;56083;48.774;8.942;2023-08-08T04:02:13;12.60;99.90
69031;DHT22;56083;48.774;8.942;2023-08-08T04:04:39;12.60;99.90
69031;DHT22;56083;48.774;8.942;2023-08-08T04:07:04;12.60;99.90
69031;DHT22;56083;48.774;8.942;2023-08-08T04:09:30;12.70;99.90
69031;DHT22;56083;48.774;8.942;2023-08-08T04:11:56;12.60;99.90
69031;DHT22;56083;48.774;8.942;2023-08-08T04:14:22;12.50;99.90
69031;DHT22;56083;48.774;8.942;2023-08-08T04:16:47;12.50;99.90
69031;DHT22;56083;48.774;8.942;2023-08-08T04:19:13;12.60;99.90
69031;DHT22;56083;48.774;8.942;2023-08-08T04:21:38;12.50;99.90
69031;DHT22;56083;48.774;8.942;2023-08-08T04:24:04;12.40;99.90
69031;DHT22;56083;48.774;8.942;2023-08-08T04:26:32;12.40;99.90
69031;DHT22;56083;48.774;8.942;2023-08-08T04:28:57;12.40;99.90
69031;DHT22;56083;48.774;8.942;2023-08-08T04:31:23;12.50;99.90
69031;DHT22;56083;48.774;8.942;2023-08-08T04:33:51;12.40;99.90
69031;DHT22;56083;48.774;8.942;2023-08-08T04:36:17;12.40;99.90
69031;DHT22;56083;48.774;8.942;2023-08-08T04:38:42;12.40;99.90
69031;DHT22;56083;48.774;8.942;2023-08-08T04:41:08;12.40;99.90
69031;DHT22;56083;48.774;8.942;2023-08-08T04:43:34;12.40;99.90
69031;DHT22;56083;48.774;8.942;2023-08-08T04:45:59;12.40;99.90
69031;DHT22;56083;48.774;8.942;2023-08-08T04:48:25;12.50;99.90
69031;DHT22;56083;48.774;8.942;2023-08-08T04:50:50;12.60;99.90
69031;DHT22;56083;48.774;8.942;2023-08-08T04:53:16;12.70;99.90
69031;DHT22;56083;48.774;8.942;2023-08-08T04:55:41;12.60;99.90
69031;DHT22;56083;48.774;8.942;2023-08-08T04:58:07;12.70;99.90
69031;DHT22;56083;48.774;8.942;2023-08-08T05:00:33;12.60;99.90
69031;DHT22;56083;48.774;8.942;2023-08-08T05:02:59;12.70;99.90
69031;DHT22;56083;48.774;8.942;2023-08-08T05:05:24;12.70;99.90
69031;DHT22;56083;48.774;8.942;2023-08-08T05:07:50;12.80;99.90
69031;DHT22;56083;48.774;8.942;2023-08-08T05:10:16;12.80;99.90
69031;DHT22;56083;48.774;8.942;2023-08-08T05:12:41;12.90;99.90
69031;DHT22;56083;48.774;8.942;2023-08-08T05:15:07;12.90;99.90
69031;DHT22;56083;48.774;8.942;2023-08-08T05:17:33;13.00;99.90
69031;DHT22;56083;48.774;8.942;2023-08-08T05:19:58;13.10;99.90
69031;DHT22;56083;48.774;8.942;2023-08-08T05:22:24;13.20;99.90
69031;DHT22;56083;48.774;8.942;2023-08-08T05:24:50;13.30;99.90
69031;DHT22;56083;48.774;8.942;2023-08-08T05:27:15;13.30;99.90
69031;DHT22;56083;48.774;8.942;2023-08-08T05:29:41;13.30;99.90
69031;DHT22;56083;48.774;8.942;2023-08-08T05:32:07;13.40;99.90
69031;DHT22;56083;48.774;8.942;2023-08-08T05:34:34;13.40;99.90
69031;DHT22;56083;48.774;8.942;2023-08-08T05:37:00;13.50;99.90
69031;DHT22;56083;48.774;8.942;2023-08-08T05:39:25;13.60;99.90
69031;DHT22;56083;48.774;8.942;2023-08-08T05:41:51;13.60;99.90
69031;DHT22;56083;48.774;8.942;2023-08-08T05:44:17;13.70;99.90
69031;DHT22;56083;48.774;8.942;2023-08-08T05:46:43;13.70;99.90
69031;DHT22;56083;48.774;8.942;2023-08-08T05:49:08;13.80;99.90
69031;DHT22;56083;48.774;8.942;2023-08-08T05:51:34;13.80;99.90
69031;DHT22;56083;48.774;8.942;2023-08-08T05:53:59;13.90;99.90
69031;DHT22;56083;48.774;8.942;2023-08-08T05:56:37;13.90;99.90
69031;DHT22;56083;48.774;8.942;2023-08-08T05:59:03;14.00;99.90
69031;DHT22;56083;48.774;8.942;2023-08-08T06:01:30;14.10;99.90
69031;DHT22;56083;48.774;8.942;2023-08-08T06:03:55;14.10;99.90
69031;DHT22;56083;48.774;8.942;2023-08-08T06:06:23;14.30;99.90
69031;DHT22;56083;48.774;8.942;2023-08-08T06:08:49;14.40;99.90
69031;DHT22;56083;48.774;8.942;2023-08-08T06:11:14;14.50;99.90
69031;DHT22;56083;48.774;8.942;2023-08-08T06:13:40;14.60;99.90
69031;DHT22;56083;48.774;8.942;2023-08-08T06:16:05;14.70;99.90
69031;DHT22;56083;48.774;8.942;2023-08-08T06:18:35;14.80;99.90
69031;DHT22;56083;48.774;8.942;2023-08-08T06:21:01;14.90;99.90
69031;DHT22;56083;48.774;8.942;2023-08-08T06:23:27;15.00;99.90
69031;DHT22;56083;48.774;8.942;2023-08-08T06:25:53;15.10;99.90
69031;DHT22;56083;48.774;8.942;2023-08-08T06:28:19;15.30;99.90
69031;DHT22;56083;48.774;8.942;2023-08-08T06:30:44;15.40;99.90
69031;DHT22;56083;48.774;8.942;2023-08-08T06:33:10;15.60;99.90
69031;DHT22;56083;48.774;8.942;2023-08-08T06:35:36;15.70;99.90
69031;DHT22;56083;48.774;8.942;2023-08-08T06:38:01;15.80;99.90
69031;DHT22;56083;48.774;8.942;2023-08-08T06:40:28;15.90;99.90
69031;DHT22;56083;48.774;8.942;2023-08-08T06:42:53;16.00;99.90
69031;DHT22;56083;48.774;8.942;2023-08-08T06:45:19;16.10;99.90
69031;DHT22;56083;48.774;8.942;2023-08-08T06:47:45;16.20;99.90
69031;DHT22;56083;48.774;8.942;2023-08-08T06:50:10;16.30;99.90
69031;DHT22;56083;48.774;8.942;2023-08-08T06:52:36;16.40;99.90
69031;DHT22;56083;48.774;8.942;2023-08-08T06:55:02;16.40;99.90
69031;DHT22;56083;48.774;8.942;2023-08-08T06:57:32;16.60;99.90
69031;DHT22;56083;48.774;8.942;2023-08-08T06:59:58;16.80;99.90
69031;DHT22;56083;48.774;8.942;2023-08-08T07:02:24;16.90;99.90
69031;DHT22;56083;48.774;8.942;2023-08-08T07:04:49;17.10;99.90
69031;DHT22;56083;48.774;8.942;2023-08-08T07:07:15;17.30;99.90
69031;DHT22;56083;48.774;8.942;2023-08-08T07:09:41;17.70;99.90
69031;DHT22;56083;48.774;8.942;2023-08-08T07:12:07;17.80;99.90
69031;DHT22;56083;48.774;8.942;2023-08-08T07:14:33;17.90;99.90
69031;DHT22;56083;48.774;8.942;2023-08-08T07:16:59;18.20;99.90
69031;DHT22;56083;48.774;8.942;2023-08-08T07:19:24;18.30;99.90
69031;DHT22;56083;48.774;8.942;2023-08-08T07:21:50;18.50;99.90
69031;DHT22;56083;48.774;8.942;2023-08-08T07:24:16;18.50;99.90
69031;DHT22;56083;48.774;8.942;2023-08-08T07:26:42;18.90;99.90
69031;DHT22;56083;48.774;8.942;2023-08-08T07:29:08;19.10;99.90
69031;DHT22;56083;48.774;8.942;2023-08-08T07:31:33;19.20;99.90
69031;DHT22;56083;48.774;8.942;2023-08-08T07:33:59;19.40;99.90
69031;DHT22;56083;48.774;8.942;2023-08-08T07:36:25;19.80;99.90
69031;DHT22;56083;48.774;8.942;2023-08-08T07:38:51;20.20;99.90
69031;DHT22;56083;48.774;8.942;2023-08-08T07:41:16;20.20;99.90
69031;DHT22;56083;48.774;8.942;2023-08-08T07:43:43;20.50;99.90
69031;DHT22;56083;48.774;8.942;2023-08-08T07:46:09;20.40;99.90
69031;DHT22;56083;48.774;8.942;2023-08-08T07:48:35;20.50;99.90
69031;DHT22;56083;48.774;8.942;2023-08-08T07:51:00;20.10;99.90
69031;DHT22;56083;48.774;8.942;2023-08-08T07:53:26;19.80;99.90
69031;DHT22;56083;48.774;8.942;2023-08-08T07:55:51;19.70;99.90
69031;DHT22;56083;48.774;8.942;2023-08-08T07:58:17;19.30;99.90
69031;DHT22;56083;48.774;8.942;2023-08-08T08:00:43;19.40;99.90
69031;DHT22;56083;48.774;8.942;2023-08-08T08:03:10;19.40;99.90
69031;DHT22;56083;48.774;8.942;2023-08-08T08:05:35;19.20;99.90
69031;DHT22;56083;48.774;8.942;2023-08-08T08:08:01;19.20;99.90
69031;DHT22;56083;48.774;8.942;2023-08-08T08:10:27;19.10;99.90
69031;DHT22;56083;48.774;8.942;2023-08-08T08:12:53;19.20;99.90
69031;DHT22;56083;48.774;8.942;2023-08-08T08:15:23;19.40;99.90
69031;DHT22;56083;48.774;8.942;2023-08-08T08:17:49;19.70;99.90
69031;DHT22;56083;48.774;8.942;2023-08-08T08:20:15;19.90;99.90
69031;DHT22;56083;48.774;8.942;2023-08-08T08:22:41;20.10;99.90
69031;DHT22;56083;48.774;8.942;2023-08-08T08:25:07;19.90;99.90
69031;DHT22;56083;48.774;8.942;2023-08-08T08:27:35;19.70;99.90
69031;DHT22;56083;48.774;8.942;2023-08-08T08:30:01;19.70;99.90
69031;DHT22;56083;48.774;8.942;2023-08-08T08:32:26;19.80;99.90
69031;DHT22;56083;48.774;8.942;2023-08-08T08:34:52;19.50;99.90
69031;DHT22;56083;48.774;8.942;2023-08-08T08:37:17;19.90;99.90
69031;DHT22;56083;48.774;8.942;2023-08-08T08:39:43;20.60;99.90
69031;DHT22;56083;48.774;8.942;2023-08-08T08:42:10;20.80;99.90
69031;DHT22;56083;48.774;8.942;2023-08-08T08:44:38;21.10;99.90
69031;DHT22;56083;48.774;8.942;2023-08-08T08:47:07;20.90;99.90
69031;DHT22;56083;48.774;8.942;2023-08-08T08:49:38;20.70;99.90
69031;DHT22;56083;48.774;8.942;2023-08-08T08:52:04;21.00;99.90
69031;DHT22;56083;48.774;8.942;2023-08-08T08:54:31;21.40;99.90
69031;DHT22;56083;48.774;8.942;2023-08-08T08:56:57;21.40;99.90
69031;DHT22;56083;48.774;8.942;2023-08-08T08:59:24;21.30;99.90
69031;DHT22;56083;48.774;8.942;2023-08-08T09:01:51;21.60;99.90
69031;DHT22;56083;48.774;8.942;2023-08-08T09:04:19;21.70;99.90
69031;DHT22;56083;48.774;8.942;2023-08-08T09:06:47;21.60;99.90
69031;DHT22;56083;48.774;8.942;2023-08-08T09:09:13;21.60;99.90
69031;DHT22;56083;48.774;8.942;2023-08-08T09:11:45;22.00;99.90
69031;DHT22;56083;48.774;8.942;2023-08-08T09:14:24;22.40;99.90
69031;DHT22;56083;48.774;8.942;2023-08-08T09:16:51;22.70;99.90
69031;DHT22;56083;48.774;8.942;2023-08-08T09:19:22;23.40;99.90
69031;DHT22;56083;48.774;8.942;2023-08-08T09:21:49;23.50;99.90
69031;DHT22;56083;48.774;8.942;2023-08-08T09:24:15;22.80;99.90
69031;DHT22;56083;48.774;8.942;2023-08-08T09:26:41;22.20;99.90
69031;DHT22;56083;48.774;8.942;2023-08-08T09:29:08;21.80;99.90
69031;DHT22;56083;48.774;8.942;2023-08-08T09:31:34;22.30;99.90
69031;DHT22;56083;48.774;8.942;2023-08-08T09:34:02;22.10;99.90
69031;DHT22;56083;48.774;8.942;2023-08-08T09:36:28;21.60;99.90
69031;DHT22;56083;48.774;8.942;2023-08-08T09:38:54;21.60;99.90
69031;DHT22;56083;48.774;8.942;2023-08-08T09:41:21;22.10;99.90
69031;DHT22;56083;48.774;8.942;2023-08-08T09:43:48;22.70;99.90
69031;DHT22;56083;48.774;8.942;2023-08-08T09:46:14;23.10;99.90
69031;DHT22;56083;48.774;8.942;2023-08-08T09:48:41;23.40;99.90
69031;DHT22;56083;48.774;8.942;2023-08-08T09:51:08;24.00;99.90
69031;DHT22;56083;48.774;8.942;2023-08-08T09:53:34;23.80;99.90
69031;DHT22;56083;48.774;8.942;2023-08-08T09:56:03;24.00;99.90
69031;DHT22;56083;48.774;8.942;2023-08-08T09:58:29;24.60;99.90
69031;DHT22;56083;48.774;8.942;2023-08-08T10:00:54;25.20;99.90
69031;DHT22;56083;48.774;8.942;2023-08-08T10:03:20;24.80;99.90
69031;DHT22;56083;48.774;8.942;2023-08-08T10:05:46;25.10;99.90
69031;DHT22;56083;48.774;8.942;2023-08-08T10:08:14;25.40;99.50
69031;DHT22;56083;48.774;8.942;2023-08-08T10:10:41;26.20;99.70
69031;DHT22;56083;48.774;8.942;2023-08-08T10:13:08;26.40;96.80
69031;DHT22;56083;48.774;8.942;2023-08-08T10:15:37;26.10;97.40
69031;DHT22;56083;48.774;8.942;2023-08-08T10:18:03;26.20;95.60
69031;DHT22;56083;48.774;8.942;2023-08-08T10:20:31;26.50;95.50
69031;DHT22;56083;48.774;8.942;2023-08-08T10:22:59;26.50;93.90
69031;DHT22;56083;48.774;8.942;2023-08-08T10:25:28;25.50;94.40
69031;DHT22;56083;48.774;8.942;2023-08-08T10:28:25;25.50;95.50
69031;DHT22;56083;48.774;8.942;2023-08-08T10:30:57;25.70;93.80
69031;DHT22;56083;48.774;8.942;2023-08-08T10:33:24;26.50;94.10
69031;DHT22;56083;48.774;8.942;2023-08-08T10:36:01;27.00;93.50
69031;DHT22;56083;48.774;8.942;2023-08-08T10:38:41;27.00;90.50
69031;DHT22;56083;48.774;8.942;2023-08-08T10:41:13;26.50;92.70
69031;DHT22;56083;48.774;8.942;2023-08-08T10:43:54;27.40;91.30
69031;DHT22;56083;48.774;8.942;2023-08-08T10:46:28;26.90;90.70
69031;DHT22;56083;48.774;8.942;2023-08-08T10:49:00;27.10;90.60
69031;DHT22;56083;48.774;8.942;2023-08-08T10:54:03;26.50;88.70
69031;DHT22;56083;48.774;8.942;2023-08-08T10:56:30;25.70;90.70
69031;DHT22;56083;48.774;8.942;2023-08-08T10:58:56;25.90;90.00
69031;DHT22;56083;48.774;8.942;2023-08-08T11:01:25;25.80;87.50
69031;DHT22;56083;48.774;8.942;2023-08-08T11:03:52;25.80;88.10
69031;DHT22;56083;48.774;8.942;2023-08-08T11:06:18;26.60;90.60
69031;DHT22;56083;48.774;8.942;2023-08-08T11:08:44;27.10;85.00
69031;DHT22;56083;48.774;8.942;2023-08-08T11:11:10;27.00;82.30
69031;DHT22;56083;48.774;8.942;2023-08-08T11:13:35;26.50;86.40
69031;DHT22;56083;48.774;8.942;2023-08-08T11:16:01;25.80;88.10
69031;DHT22;56083;48.774;8.942;2023-08-08T11:18:28;25.50;89.00
69031;DHT22;56083;48.774;8.942;2023-08-08T11:20:54;25.20;91.20
69031;DHT22;56083;48.774;8.942;2023-08-08T11:23:19;25.20;88.80
69031;DHT22;56083;48.774;8.942;2023-08-08T11:25:47;24.70;88.30
69031;DHT22;56083;48.774;8.942;2023-08-08T11:28:13;25.90;88.40
69031;DHT22;56083;48.774;8.942;2023-08-08T11:30:42;27.00;88.70
69031;DHT22;56083;48.774;8.942;2023-08-08T11:33:09;26.90;82.50
69031;DHT22;56083;48.774;8.942;2023-08-08T11:35:35;27.70;81.90
69031;DHT22;56083;48.774;8.942;2023-08-08T11:38:01;27.80;79.90
69031;DHT22;56083;48.774;8.942;2023-08-08T11:40:28;27.00;82.30
69031;DHT22;56083;48.774;8.942;2023-08-08T11:42:56;27.30;79.00
69031;DHT22;56083;48.774;8.942;2023-08-08T11:45:23;28.50;83.00
69031;DHT22;56083;48.774;8.942;2023-08-08T11:47:53;29.00;74.40
69031;DHT22;56083;48.774;8.942;2023-08-08T11:50:20;29.30;77.30
69031;DHT22;56083;48.774;8.942;2023-08-08T11:52:48;28.10;76.90
69031;DHT22;56083;48.774;8.942;2023-08-08T11:55:15;26.50;77.00
69031;DHT22;56083;48.774;8.942;2023-08-08T11:57:41;24.90;83.30
69031;DHT22;56083;48.774;8.942;2023-08-08T12:00:08;25.00;82.50
69031;DHT22;56083;48.774;8.942;2023-08-08T12:02:37;25.80;79.50
69031;DHT22;56083;48.774;8.942;2023-08-08T12:05:07;25.80;79.60
69031;DHT22;56083;48.774;8.942;2023-08-08T12:07:34;26.70;81.60
69031;DHT22;56083;48.774;8.942;2023-08-08T12:10:00;25.70;82.50
69031;DHT22;56083;48.774;8.942;2023-08-08T12:12:27;25.30;86.10
69031;DHT22;56083;48.774;8.942;2023-08-08T12:14:56;26.80;85.80
69031;DHT22;56083;48.774;8.942;2023-08-08T12:17:22;27.30;77.50
69031;DHT22;56083;48.774;8.942;2023-08-08T12:19:47;26.80;76.60
69031;DHT22;56083;48.774;8.942;2023-08-08T12:22:14;26.40;80.40
69031;DHT22;56083;48.774;8.942;2023-08-08T12:24:40;25.90;81.20
69031;DHT22;56083;48.774;8.942;2023-08-08T12:27:06;25.90;82.20
69031;DHT22;56083;48.774;8.942;2023-08-08T12:29:31;26.90;79.30
69031;DHT22;56083;48.774;8.942;2023-08-08T12:31:57;27.30;79.50
69031;DHT22;56083;48.774;8.942;2023-08-08T12:34:23;27.80;81.70
69031;DHT22;56083;48.774;8.942;2023-08-08T12:36:48;27.30;75.50
69031;DHT22;56083;48.774;8.942;2023-08-08T12:39:14;26.60;76.30
69031;DHT22;56083;48.774;8.942;2023-08-08T12:41:40;26.00;80.20
69031;DHT22;56083;48.774;8.942;2023-08-08T12:44:06;26.50;79.20
69031;DHT22;56083;48.774;8.942;2023-08-08T12:46:33;27.20;82.30
69031;DHT22;56083;48.774;8.942;2023-08-08T12:48:59;26.90;81.70
69031;DHT22;56083;48.774;8.942;2023-08-08T12:51:24;26.10;83.20
69031;DHT22;56083;48.774;8.942;2023-08-08T12:53:50;25.20;87.40
69031;DHT22;56083;48.774;8.942;2023-08-08T12:56:16;24.50;90.10
69031;DHT22;56083;48.774;8.942;2023-08-08T12:58:42;23.40;91.30
69031;DHT22;56083;48.774;8.942;2023-08-08T13:01:07;23.00;92.60
69031;DHT22;56083;48.774;8.942;2023-08-08T13:03:33;22.70;94.10
69031;DHT22;56083;48.774;8.942;2023-08-08T13:06:00;22.30;94.80
69031;DHT22;56083;48.774;8.942;2023-08-08T13:08:25;23.00;94.60
69031;DHT22;56083;48.774;8.942;2023-08-08T13:10:51;24.70;92.50
69031;DHT22;56083;48.774;8.942;2023-08-08T13:13:17;25.80;90.70
69031;DHT22;56083;48.774;8.942;2023-08-08T13:15:42;26.20;88.90
69031;DHT22;56083;48.774;8.942;2023-08-08T13:18:09;26.80;90.20
69031;DHT22;56083;48.774;8.942;2023-08-08T13:20:34;27.50;84.60
69031;DHT22;56083;48.774;8.942;2023-08-08T13:23:00;28.30;81.40
69031;DHT22;56083;48.774;8.942;2023-08-08T13:25:25;28.70;79.00
69031;DHT22;56083;48.774;8.942;2023-08-08T13:27:51;28.30;80.10
69031;DHT22;56083;48.774;8.942;2023-08-08T13:30:17;28.70;80.50
69031;DHT22;56083;48.774;8.942;2023-08-08T13:32:42;29.40;80.10
69031;DHT22;56083;48.774;8.942;2023-08-08T13:35:08;30.20;76.10
69031;DHT22;56083;48.774;8.942;2023-08-08T13:37:34;30.60;75.30
69031;DHT22;56083;48.774;8.942;2023-08-08T13:40:00;29.50;74.40
69031;DHT22;56083;48.774;8.942;2023-08-08T13:42:25;29.50;75.60
69031;DHT22;56083;48.774;8.942;2023-08-08T13:44:51;29.80;75.00
69031;DHT22;56083;48.774;8.942;2023-08-08T13:47:17;29.40;75.40
69031;DHT22;56083;48.774;8.942;2023-08-08T13:49:42;28.50;74.50
69031;DHT22;56083;48.774;8.942;2023-08-08T13:52:08;28.10;76.20
69031;DHT22;56083;48.774;8.942;2023-08-08T13:54:34;28.30;77.60
69031;DHT22;56083;48.774;8.942;2023-08-08T13:57:00;28.50;78.30
69031;DHT22;56083;48.774;8.942;2023-08-08T13:59:26;28.60;75.90
69031;DHT22;56083;48.774;8.942;2023-08-08T14:01:52;28.30;76.00
69031;DHT22;56083;48.774;8.942;2023-08-08T14:04:17;27.60;77.00
69031;DHT22;56083;48.774;8.942;2023-08-08T14:06:44;26.40;78.20
69031;DHT22;56083;48.774;8.942;2023-08-08T14:09:10;25.00;81.20
69031;DHT22;56083;48.774;8.942;2023-08-08T14:11:36;23.80;85.20
69031;DHT22;56083;48.774;8.942;2023-08-08T14:14:01;23.60;86.40
69031;DHT22;56083;48.774;8.942;2023-08-08T14:16:27;23.10;88.60
69031;DHT22;56083;48.774;8.942;2023-08-08T14:18:53;22.60;89.90
69031;DHT22;56083;48.774;8.942;2023-08-08T14:21:18;22.40;90.80
69031;DHT22;56083;48.774;8.942;2023-08-08T14:23:44;21.90;90.90
69031;DHT22;56083;48.774;8.942;2023-08-08T14:26:10;21.70;92.20
69031;DHT22;56083;48.774;8.942;2023-08-08T14:28:35;21.70;92.30
69031;DHT22;56083;48.774;8.942;2023-08-08T14:31:01;21.80;92.80
69031;DHT22;56083;48.774;8.942;2023-08-08T14:33:27;21.80;92.60
69031;DHT22;56083;48.774;8.942;2023-08-08T14:35:53;21.80;92.80
69031;DHT22;56083;48.774;8.942;2023-08-08T14:38:23;21.60;93.00
69031;DHT22;56083;48.774;8.942;2023-08-08T14:40:49;21.50;93.80
69031;DHT22;56083;48.774;8.942;2023-08-08T14:43:15;21.50;93.30
69031;DHT22;56083;48.774;8.942;2023-08-08T14:45:41;21.40;93.80
69031;DHT22;56083;48.774;8.942;2023-08-08T14:48:06;21.20;95.00
69031;DHT22;56083;48.774;8.942;2023-08-08T14:50:32;21.00;94.70
69031;DHT22;56083;48.774;8.942;2023-08-08T14:52:58;20.80;96.00
69031;DHT22;56083;48.774;8.942;2023-08-08T14:55:24;20.80;95.30
69031;DHT22;56083;48.774;8.942;2023-08-08T14:57:49;20.80;95.80
69031;DHT22;56083;48.774;8.942;2023-08-08T15:00:15;21.00;96.00
69031;DHT22;56083;48.774;8.942;2023-08-08T15:02:41;21.80;95.40
69031;DHT22;56083;48.774;8.942;2023-08-08T15:05:06;22.90;93.90
69031;DHT22;56083;48.774;8.942;2023-08-08T15:07:34;24.70;91.50
69031;DHT22;56083;48.774;8.942;2023-08-08T15:10:01;25.50;87.50
69031;DHT22;56083;48.774;8.942;2023-08-08T15:12:27;25.90;87.20
69031;DHT22;56083;48.774;8.942;2023-08-08T15:14:59;25.70;86.90
69031;DHT22;56083;48.774;8.942;2023-08-08T15:17:25;24.40;90.30
69031;DHT22;56083;48.774;8.942;2023-08-08T15:19:50;23.10;91.50
69031;DHT22;56083;48.774;8.942;2023-08-08T15:22:16;22.20;93.20
69031;DHT22;56083;48.774;8.942;2023-08-08T15:24:41;21.60;94.10
69031;DHT22;56083;48.774;8.942;2023-08-08T15:27:07;21.30;95.00
69031;DHT22;56083;48.774;8.942;2023-08-08T15:29:34;20.80;95.30